Time;durP1;ratioP1;P1;durP2;ratioP2;P2;SDS_P1;SDS_P2;PMS_P1;PMS_P2;Temp;Humidity;BMP_temperature;BMP_pressure;BME280_temperature;BME280_humidity;BME280_pressure;Samples;Min_cycle;Max_cycle;Signal;HPM_P1;HPM_P2
2023/12/04 00:01:43;;;;;;;18.00;8.15;;;1.40;84.30;;;;;;5046591;28;20041;-83
2023/12/04 00:04:10;;;;;;;20.67;7.68;;;1.30;84.20;;;;;;5047909;28;20115;-82
2023/12/04 00:06:37;;;;;;;21.48;8.80;;;1.30;84.40;;;;;;5029672;28;20129;-83
2023/12/04 00:09:04;;;;;;;21.10;9.20;;;1.30;84.40;;;;;;5046332;28;20045;-83
2023/12/04 00:11:32;;;;;;;20.95;8.95;;;1.30;84.50;;;;;;5046660;28;20279;-83
2023/12/04 00:13:59;;;;;;;21.10;9.30;;;1.30;84.60;;;;;;5046393;28;20107;-82
2023/12/04 00:16:27;;;;;;;21.33;8.70;;;1.30;84.70;;;;;;5058521;28;20069;-82
2023/12/04 00:18:54;;;;;;;21.52;8.68;;;1.40;84.60;;;;;;5073280;28;20225;-82
2023/12/04 00:21:21;;;;;;;18.00;7.57;;;1.30;84.60;;;;;;5069352;28;20509;-82
2023/12/04 00:23:48;;;;;;;21.92;8.75;;;1.30;84.70;;;;;;5089920;28;20684;-82
2023/12/04 00:26:16;;;;;;;21.08;8.80;;;1.30;85.00;;;;;;5072995;28;20045;-82
2023/12/04 00:28:43;;;;;;;18.92;8.48;;;1.40;84.80;;;;;;5091674;28;20050;-83
2023/12/04 00:31:11;;;;;;;19.50;8.05;;;1.40;85.00;;;;;;5090504;28;20048;-82
2023/12/04 00:33:39;;;;;;;21.97;9.27;;;1.40;85.00;;;;;;5091572;28;20057;-83
2023/12/04 00:36:07;;;;;;;17.77;8.10;;;1.40;85.00;;;;;;5089792;28;20337;-83
2023/12/04 00:38:34;;;;;;;20.95;8.75;;;1.40;85.00;;;;;;5090223;28;20326;-83
2023/12/04 00:41:01;;;;;;;18.73;8.80;;;1.40;85.10;;;;;;5106669;28;20498;-83
2023/12/04 00:43:27;;;;;;;21.20;8.43;;;1.40;85.00;;;;;;5090091;28;20048;-82
2023/12/04 00:45:54;;;;;;;18.77;8.30;;;1.40;85.00;;;;;;5089738;28;20056;-82
2023/12/04 00:48:21;;;;;;;18.70;7.90;;;1.40;85.10;;;;;;5090141;28;20364;-82
2023/12/04 00:50:49;;;;;;;19.90;8.77;;;1.40;85.10;;;;;;5091210;28;20147;-82
2023/12/04 00:53:16;;;;;;;17.48;8.40;;;1.40;85.10;;;;;;5073163;28;20060;-83
2023/12/04 00:55:44;;;;;;;18.35;8.73;;;1.40;85.10;;;;;;5089806;28;20064;-82
2023/12/04 00:58:12;;;;;;;20.03;9.17;;;1.40;85.10;;;;;;5087167;28;20068;-82
2023/12/04 01:00:39;;;;;;;18.95;8.27;;;1.40;85.20;;;;;;5052487;28;20678;-82
2023/12/04 01:03:06;;;;;;;18.60;8.20;;;1.40;85.20;;;;;;5069605;28;20053;-83
2023/12/04 01:05:33;;;;;;;19.35;8.52;;;1.40;85.10;;;;;;5070469;28;20045;-83
2023/12/04 01:08:01;;;;;;;21.48;9.40;;;1.40;85.20;;;;;;5052957;28;20053;-83
2023/12/04 01:10:28;;;;;;;20.60;9.00;;;1.40;85.20;;;;;;5069582;28;20049;-83
2023/12/04 01:12:55;;;;;;;19.88;8.98;;;1.40;85.40;;;;;;5069693;28;20260;-83
2023/12/04 01:15:23;;;;;;;18.90;8.20;;;1.40;85.50;;;;;;5070619;28;20064;-82
2023/12/04 01:17:50;;;;;;;22.30;9.68;;;1.40;85.50;;;;;;5069558;28;20128;-82
2023/12/04 01:20:17;;;;;;;21.85;9.55;;;1.40;85.50;;;;;;5069286;28;20059;-83
2023/12/04 01:22:44;;;;;;;21.03;9.87;;;1.40;85.50;;;;;;5068944;28;20049;-82
2023/12/04 01:25:12;;;;;;;19.17;8.70;;;1.40;85.50;;;;;;5068542;28;20263;-82
2023/12/04 01:27:39;;;;;;;19.88;9.02;;;1.40;85.40;;;;;;5070658;28;20056;-83
2023/12/04 01:30:08;;;;;;;20.35;9.50;;;1.40;85.30;;;;;;5069080;28;20104;-83
2023/12/04 01:32:35;;;;;;;19.45;9.38;;;1.40;85.30;;;;;;5052037;28;20053;-82
2023/12/04 01:35:02;;;;;;;23.57;10.13;;;1.40;85.50;;;;;;5070029;28;20059;-84
2023/12/04 01:37:29;;;;;;;20.83;9.38;;;1.40;85.60;;;;;;5068355;28;20650;-83
2023/12/04 01:39:56;;;;;;;20.00;9.25;;;1.40;85.60;;;;;;5068231;28;20053;-82
2023/12/04 01:42:25;;;;;;;22.20;9.10;;;1.40;85.90;;;;;;5070299;28;20594;-82
2023/12/04 01:44:51;;;;;;;21.48;9.30;;;1.40;86.00;;;;;;5066656;28;20570;-83
2023/12/04 01:47:19;;;;;;;18.60;9.50;;;1.50;86.00;;;;;;5067114;28;20083;-82
2023/12/04 01:49:46;;;;;;;21.48;9.02;;;1.50;86.10;;;;;;5067182;28;20271;-83
2023/12/04 01:52:13;;;;;;;20.20;8.93;;;1.50;85.90;;;;;;5067510;28;20041;-83
2023/12/04 01:54:40;;;;;;;18.90;8.00;;;1.50;85.90;;;;;;5067174;28;20067;-82
2023/12/04 01:57:08;;;;;;;18.85;9.15;;;1.50;85.80;;;;;;5068706;28;20107;-83
2023/12/04 01:59:36;;;;;;;20.87;9.27;;;1.50;86.10;;;;;;5067828;28;20438;-82
2023/12/04 02:02:04;;;;;;;17.58;8.50;;;1.60;86.10;;;;;;5068580;28;20271;-83
2023/12/04 02:04:32;;;;;;;19.45;8.80;;;1.60;86.30;;;;;;5068193;28;20559;-83
2023/12/04 02:06:59;;;;;;;19.48;8.38;;;1.60;86.20;;;;;;5052018;28;20066;-83
2023/12/04 02:09:27;;;;;;;19.17;8.43;;;1.60;86.00;;;;;;5051537;28;20140;-83
2023/12/04 02:11:55;;;;;;;18.33;8.57;;;1.60;85.80;;;;;;5068104;28;20125;-83
2023/12/04 02:14:22;;;;;;;17.85;8.00;;;1.60;85.90;;;;;;5067855;28;20353;-83
2023/12/04 02:16:53;;;;;;;16.85;7.35;;;1.70;86.00;;;;;;5068369;28;20053;-83
2023/12/04 02:19:20;;;;;;;19.60;8.73;;;1.70;85.90;;;;;;5068145;28;20644;-82
2023/12/04 02:21:46;;;;;;;16.80;7.97;;;1.70;85.60;;;;;;5068411;28;20132;-82
2023/12/04 02:24:15;;;;;;;19.90;7.97;;;1.60;85.40;;;;;;5068128;28;20136;-82
2023/12/04 02:26:47;;;;;;;17.88;7.53;;;1.60;85.40;;;;;;5051381;28;20291;-82
2023/12/04 02:29:24;;;;;;;19.65;7.90;;;1.60;85.40;;;;;;5068024;28;20060;-83
2023/12/04 02:31:54;;;;;;;18.98;7.63;;;1.60;85.40;;;;;;5069745;28;20057;-82
2023/12/04 02:34:21;;;;;;;17.92;7.95;;;1.60;85.40;;;;;;5068152;28;20049;-83
2023/12/04 02:36:49;;;;;;;18.30;8.27;;;1.60;85.40;;;;;;5068039;28;20140;-83
2023/12/04 02:39:18;;;;;;;18.95;7.55;;;1.60;85.40;;;;;;5068242;28;20259;-82
2023/12/04 02:41:45;;;;;;;18.42;8.18;;;1.60;85.30;;;;;;5068068;28;20128;-83
2023/12/04 02:44:12;;;;;;;17.45;8.50;;;1.60;85.40;;;;;;5066692;28;20541;-83
2023/12/04 02:46:39;;;;;;;21.95;8.93;;;1.60;85.40;;;;;;5067591;28;20904;-83
2023/12/04 02:49:06;;;;;;;19.80;8.47;;;1.60;85.40;;;;;;5069224;28;20057;-82
2023/12/04 02:51:33;;;;;;;19.60;8.30;;;1.60;85.50;;;;;;5069173;28;20260;-83
2023/12/04 02:54:00;;;;;;;18.83;8.25;;;1.60;85.50;;;;;;5067415;28;20584;-83
2023/12/04 02:56:28;;;;;;;20.50;9.02;;;1.60;85.60;;;;;;5067546;28;20598;-82
2023/12/04 02:58:55;;;;;;;18.95;8.20;;;1.70;85.60;;;;;;5067731;28;20055;-82
2023/12/04 03:01:22;;;;;;;18.53;8.20;;;1.70;85.40;;;;;;5068655;28;20063;-83
2023/12/04 03:03:48;;;;;;;19.50;8.18;;;1.70;85.20;;;;;;5067387;28;20628;-83
2023/12/04 03:06:15;;;;;;;16.85;7.47;;;1.70;85.20;;;;;;5067279;28;20053;-82
2023/12/04 03:08:43;;;;;;;18.23;8.32;;;1.60;85.20;;;;;;5067421;28;21040;-83
2023/12/04 03:11:10;;;;;;;20.77;8.43;;;1.70;85.10;;;;;;5068467;28;20499;-82
2023/12/04 03:13:38;;;;;;;19.83;8.20;;;1.70;85.10;;;;;;5067239;28;20107;-83
2023/12/04 03:16:05;;;;;;;17.58;8.23;;;1.60;85.10;;;;;;5083903;28;20313;-83
2023/12/04 03:18:32;;;;;;;20.40;7.60;;;1.60;85.10;;;;;;5067832;28;20057;-83
2023/12/04 03:20:59;;;;;;;19.80;9.00;;;1.70;85.20;;;;;;5067066;28;20049;-83
2023/12/04 03:23:26;;;;;;;19.13;8.32;;;1.70;85.20;;;;;;5050306;28;20120;-82
2023/12/04 03:25:53;;;;;;;19.37;7.73;;;1.70;85.10;;;;;;5066233;28;20107;-83
2023/12/04 03:28:20;;;;;;;18.77;7.97;;;1.70;85.20;;;;;;5067305;28;20263;-82
2023/12/04 03:30:48;;;;;;;18.65;7.70;;;1.70;85.10;;;;;;5068605;28;20063;-83
2023/12/04 03:33:15;;;;;;;19.40;8.23;;;1.80;85.50;;;;;;5067478;28;20542;-83
2023/12/04 03:35:42;;;;;;;17.88;7.70;;;1.80;85.40;;;;;;5083100;28;20068;-83
2023/12/04 03:38:09;;;;;;;18.13;8.40;;;1.80;85.20;;;;;;5066486;28;20056;-83
2023/12/04 03:40:35;;;;;;;18.65;7.82;;;1.80;85.10;;;;;;5068264;28;20838;-82
2023/12/04 03:43:02;;;;;;;17.67;7.65;;;1.80;85.00;;;;;;5067049;28;20045;-83
2023/12/04 03:45:29;;;;;;;18.70;7.93;;;1.80;85.00;;;;;;5064937;28;20049;-83
2023/12/04 03:47:57;;;;;;;16.35;6.22;;;1.80;84.90;;;;;;5066560;28;20053;-83
2023/12/04 03:50:24;;;;;;;18.43;7.47;;;1.80;84.80;;;;;;5066431;28;20053;-82
2023/12/04 03:52:51;;;;;;;19.23;8.40;;;1.70;84.70;;;;;;5066801;28;20356;-82
2023/12/04 03:55:19;;;;;;;19.77;8.48;;;1.70;84.90;;;;;;5065483;28;20049;-82
2023/12/04 03:57:46;;;;;;;16.90;7.28;;;1.70;85.00;;;;;;5069531;28;20172;-82
2023/12/04 04:00:14;;;;;;;21.67;8.63;;;1.70;85.00;;;;;;5070490;28;20073;-82
2023/12/04 04:02:43;;;;;;;20.57;8.83;;;1.70;84.90;;;;;;5069849;28;20041;-83
2023/12/04 04:05:12;;;;;;;18.85;8.25;;;1.70;84.80;;;;;;5070395;28;20329;-83
2023/12/04 04:07:39;;;;;;;17.92;7.75;;;1.70;84.70;;;;;;5069936;28;20466;-82
2023/12/04 04:10:06;;;;;;;18.38;7.45;;;1.70;84.80;;;;;;5070441;28;20053;-83
2023/12/04 04:12:33;;;;;;;20.63;8.55;;;1.70;84.80;;;;;;5071318;28;20049;-83
2023/12/04 04:15:00;;;;;;;20.23;8.07;;;1.70;85.00;;;;;;5069430;28;20052;-83
2023/12/04 04:17:28;;;;;;;18.75;8.23;;;1.70;85.10;;;;;;5052946;28;20271;-83
2023/12/04 04:19:57;;;;;;;16.40;7.00;;;1.70;85.10;;;;;;5069875;28;20593;-83
2023/12/04 04:22:26;;;;;;;16.73;6.97;;;1.80;85.00;;;;;;5070155;28;20053;-83
2023/12/04 04:24:52;;;;;;;17.08;7.50;;;1.70;85.10;;;;;;5070635;28;20064;-83
2023/12/04 04:27:19;;;;;;;19.47;7.63;;;1.80;85.00;;;;;;5069755;28;20053;-82
2023/12/04 04:29:46;;;;;;;18.73;7.85;;;1.80;85.00;;;;;;5069884;28;20284;-83
2023/12/04 04:32:13;;;;;;;16.17;6.97;;;1.80;84.80;;;;;;5070927;28;20051;-83
2023/12/04 04:34:40;;;;;;;18.67;7.95;;;1.80;84.90;;;;;;5069520;28;20045;-82
2023/12/04 04:37:07;;;;;;;17.83;7.47;;;1.80;84.80;;;;;;5069648;28;20187;-83
2023/12/04 04:39:35;;;;;;;19.47;7.07;;;1.80;84.80;;;;;;5052668;28;20128;-83
2023/12/04 04:42:02;;;;;;;17.27;6.85;;;1.80;84.80;;;;;;5069605;28;20720;-83
2023/12/04 04:44:29;;;;;;;17.45;7.78;;;1.80;85.00;;;;;;5069184;28;20543;-83
2023/12/04 04:46:56;;;;;;;15.75;7.50;;;1.80;84.80;;;;;;5069713;28;20061;-82
2023/12/04 04:49:23;;;;;;;17.80;7.07;;;1.80;85.00;;;;;;5069764;28;20048;-83
2023/12/04 04:51:51;;;;;;;15.77;6.07;;;1.80;85.00;;;;;;5068806;28;20132;-83
2023/12/04 04:54:18;;;;;;;17.08;7.10;;;1.80;85.10;;;;;;5069291;28;20287;-83
2023/12/04 04:56:46;;;;;;;18.65;7.70;;;1.80;84.90;;;;;;5068989;28;20502;-83
2023/12/04 04:59:13;;;;;;;18.17;7.15;;;1.90;85.10;;;;;;5069404;28;20517;-82
2023/12/04 05:01:40;;;;;;;16.77;7.50;;;1.80;85.00;;;;;;5070963;28;20485;-82
2023/12/04 05:04:07;;;;;;;16.37;6.73;;;1.90;85.00;;;;;;5069482;28;20415;-83
2023/12/04 05:06:34;;;;;;;16.73;7.15;;;1.90;85.00;;;;;;5068528;28;20259;-83
2023/12/04 05:09:01;;;;;;;17.25;7.13;;;1.90;85.20;;;;;;5052162;28;20124;-83
2023/12/04 05:11:28;;;;;;;15.68;7.18;;;2.00;85.20;;;;;;5070392;28;20526;-83
2023/12/04 05:13:56;;;;;;;18.27;7.20;;;2.00;85.40;;;;;;5085708;28;20067;-82
2023/12/04 05:16:23;;;;;;;17.70;7.70;;;2.10;85.40;;;;;;5068830;28;20084;-83
2023/12/04 05:18:50;;;;;;;16.83;7.45;;;2.10;85.20;;;;;;5085780;28;20359;-83
2023/12/04 05:21:17;;;;;;;16.40;7.15;;;2.10;85.10;;;;;;5068730;28;20076;-83
2023/12/04 05:23:44;;;;;;;16.98;7.20;;;2.10;84.90;;;;;;5068793;28;20508;-82
2023/12/04 05:26:11;;;;;;;18.75;7.30;;;2.10;85.00;;;;;;5070034;28;20052;-82
2023/12/04 05:28:38;;;;;;;17.03;6.80;;;2.10;84.80;;;;;;5070309;28;20600;-83
2023/12/04 05:31:06;;;;;;;16.10;6.70;;;2.20;84.70;;;;;;5068769;28;20285;-83
2023/12/04 05:33:33;;;;;;;15.15;6.80;;;2.20;84.80;;;;;;5068446;28;20057;-83
2023/12/04 05:36:01;;;;;;;17.17;6.97;;;2.20;84.60;;;;;;5052006;28;20060;-83
2023/12/04 05:38:28;;;;;;;14.55;6.78;;;2.20;84.70;;;;;;5068670;28;20691;-83
2023/12/04 05:40:55;;;;;;;15.60;6.83;;;2.20;85.00;;;;;;5068440;28;20408;-83
2023/12/04 05:43:21;;;;;;;17.10;6.75;;;2.20;84.80;;;;;;5068467;28;20806;-82
2023/12/04 05:45:48;;;;;;;19.17;7.18;;;2.30;85.00;;;;;;5068101;28;20057;-83
2023/12/04 05:48:16;;;;;;;16.98;7.05;;;2.30;84.40;;;;;;5069715;28;20060;-83
2023/12/04 05:50:43;;;;;;;16.70;6.40;;;2.30;84.50;;;;;;5067955;28;20057;-83
2023/12/04 05:53:10;;;;;;;16.17;6.40;;;2.30;84.40;;;;;;5051823;28;20098;-83
2023/12/04 05:55:37;;;;;;;17.05;6.78;;;2.30;84.20;;;;;;5051360;28;20331;-83
2023/12/04 05:58:04;;;;;;;18.30;7.47;;;2.30;84.30;;;;;;5068259;28;20064;-82
2023/12/04 06:00:31;;;;;;;16.75;7.07;;;2.30;84.60;;;;;;5068424;28;20057;-83
2023/12/04 06:02:58;;;;;;;16.77;7.10;;;2.30;84.50;;;;;;5068320;28;20049;-82
2023/12/04 06:05:27;;;;;;;16.13;6.60;;;2.30;84.70;;;;;;5051751;28;20052;-83
2023/12/04 06:07:54;;;;;;;16.52;6.38;;;2.40;84.90;;;;;;5068273;28;20256;-83
2023/12/04 06:10:21;;;;;;;17.98;7.15;;;2.40;84.70;;;;;;5068569;28;20060;-83
2023/12/04 06:12:48;;;;;;;16.42;6.60;;;2.40;84.10;;;;;;5069969;28;20049;-83
2023/12/04 06:15:15;;;;;;;16.83;6.22;;;2.40;84.00;;;;;;5102457;28;20606;-82
2023/12/04 06:17:42;;;;;;;14.53;6.47;;;2.40;84.30;;;;;;5068258;28;20063;-82
2023/12/04 06:20:11;;;;;;;17.20;6.63;;;2.40;84.30;;;;;;5066488;28;20854;-83
2023/12/04 06:22:40;;;;;;;15.55;6.85;;;2.40;84.20;;;;;;5068368;28;20057;-82
2023/12/04 06:25:08;;;;;;;17.33;6.72;;;2.40;83.90;;;;;;5085075;28;20064;-83
2023/12/04 06:27:35;;;;;;;16.08;6.68;;;2.40;83.90;;;;;;5067953;28;20491;-83
2023/12/04 06:30:03;;;;;;;16.90;6.57;;;2.40;83.70;;;;;;5084692;28;20045;-83
2023/12/04 06:32:31;;;;;;;14.60;6.88;;;2.40;83.60;;;;;;5101499;28;20311;-83
2023/12/04 06:34:59;;;;;;;15.35;6.63;;;2.40;83.40;;;;;;5069321;28;20102;-83
2023/12/04 06:37:27;;;;;;;15.80;5.93;;;2.40;83.70;;;;;;5067644;28;20045;-83
2023/12/04 06:39:57;;;;;;;14.63;6.55;;;2.40;83.40;;;;;;5067792;28;20056;-82
2023/12/04 06:42:24;;;;;;;12.37;5.17;;;2.40;83.70;;;;;;5101197;27;20672;-83
2023/12/04 06:44:52;;;;;;;15.20;6.53;;;2.40;83.70;;;;;;5067592;28;20729;-83
2023/12/04 06:47:23;;;;;;;14.10;6.53;;;2.40;83.20;;;;;;5067798;28;20057;-83
2023/12/04 06:49:50;;;;;;;16.10;7.03;;;2.40;82.90;;;;;;5050909;28;20059;-83
2023/12/04 06:52:16;;;;;;;15.23;6.57;;;2.30;82.90;;;;;;5067384;28;20049;-83
2023/12/04 06:54:43;;;;;;;14.17;6.00;;;2.30;82.70;;;;;;5067220;28;20059;-83
2023/12/04 06:57:14;;;;;;;15.27;6.45;;;2.30;82.80;;;;;;5068758;28;20287;-83
2023/12/04 06:59:41;;;;;;;13.63;6.25;;;2.30;82.90;;;;;;5053850;28;20136;-82
2023/12/04 07:02:08;;;;;;;15.45;6.47;;;2.30;83.20;;;;;;5047466;28;20057;-83
2023/12/04 07:04:38;;;;;;;14.10;5.90;;;2.30;83.20;;;;;;5048593;28;20506;-83
2023/12/04 07:07:05;;;;;;;17.03;6.50;;;2.20;83.20;;;;;;5048653;28;20057;-83
2023/12/04 07:09:32;;;;;;;15.07;6.22;;;2.20;83.30;;;;;;5048636;28;20280;-83
2023/12/04 07:11:59;;;;;;;14.52;5.50;;;2.30;83.10;;;;;;5047112;28;20058;-83
2023/12/04 07:14:28;;;;;;;15.32;6.28;;;2.30;82.90;;;;;;5046968;28;20427;-84
2023/12/04 07:16:54;;;;;;;13.75;5.78;;;2.20;82.60;;;;;;5046769;28;20049;-83
2023/12/04 07:19:22;;;;;;;13.87;6.07;;;2.30;83.10;;;;;;5048308;28;20140;-83
2023/12/04 07:21:49;;;;;;;15.00;6.13;;;2.30;83.00;;;;;;5066287;28;20350;-83
2023/12/04 07:24:16;;;;;;;12.73;5.88;;;2.30;82.70;;;;;;5059600;28;20052;-83
2023/12/04 07:26:43;;;;;;;13.52;6.03;;;2.30;82.90;;;;;;5067942;28;20056;-83
2023/12/04 07:29:10;;;;;;;14.32;5.70;;;2.30;83.40;;;;;;5048710;28;20485;-82
2023/12/04 07:31:39;;;;;;;14.57;6.00;;;2.30;83.30;;;;;;5065425;28;20057;-82
2023/12/04 07:34:06;;;;;;;13.60;5.90;;;2.30;82.90;;;;;;5065457;28;20330;-83
2023/12/04 07:36:33;;;;;;;14.65;6.03;;;2.30;82.60;;;;;;5067135;28;20060;-85
2023/12/04 07:39:00;;;;;;;14.07;6.00;;;2.30;82.50;;;;;;5065360;28;20053;-83
2023/12/04 07:41:27;;;;;;;15.43;6.22;;;2.30;82.60;;;;;;5066927;28;20053;-83
2023/12/04 07:43:55;;;;;;;15.37;6.13;;;2.30;82.40;;;;;;5068021;28;20051;-83
2023/12/04 07:46:22;;;;;;;14.80;6.25;;;2.30;82.60;;;;;;5066696;28;20259;-82
2023/12/04 07:48:50;;;;;;;13.93;5.70;;;2.30;83.00;;;;;;5050136;28;20072;-82
2023/12/04 07:51:17;;;;;;;13.60;6.15;;;2.30;82.80;;;;;;5052223;28;20053;-83
2023/12/04 07:53:44;;;;;;;14.52;5.78;;;2.30;82.80;;;;;;5048004;28;20053;-83
2023/12/04 07:56:13;;;;;;;12.63;5.20;;;2.30;82.40;;;;;;5062243;28;20064;-83
2023/12/04 07:58:40;;;;;;;15.85;6.43;;;2.30;82.00;;;;;;5066397;28;20343;-82
2023/12/04 08:01:08;;;;;;;14.00;5.68;;;2.30;81.90;;;;;;5083476;28;20152;-83
2023/12/04 08:03:35;;;;;;;14.00;5.88;;;2.30;82.40;;;;;;5066743;28;20997;-82
2023/12/04 08:06:04;;;;;;;11.23;4.68;;;2.30;82.00;;;;;;5083017;28;20060;-83
2023/12/04 08:08:31;;;;;;;13.83;5.60;;;2.20;81.70;;;;;;5083280;28;20095;-83
2023/12/04 08:10:58;;;;;;;13.45;5.75;;;2.20;81.60;;;;;;5083368;28;20276;-82
2023/12/04 08:13:25;;;;;;;13.00;6.13;;;2.20;81.70;;;;;;5066560;28;20056;-82
2023/12/04 08:15:53;;;;;;;12.60;5.65;;;2.20;81.80;;;;;;5066431;28;20107;-82
2023/12/04 08:18:20;;;;;;;12.27;5.10;;;2.20;81.50;;;;;;5066501;28;20052;-83
2023/12/04 08:20:47;;;;;;;14.90;5.57;;;2.10;81.30;;;;;;5049704;28;20050;-83
2023/12/04 08:23:16;;;;;;;13.00;5.22;;;2.10;81.60;;;;;;5061067;28;20252;-83
2023/12/04 08:25:43;;;;;;;12.77;5.60;;;2.10;81.70;;;;;;5066562;28;20081;-83
2023/12/04 08:28:10;;;;;;;13.27;5.47;;;2.10;81.80;;;;;;5066806;28;20083;-83
2023/12/04 08:30:37;;;;;;;12.95;4.97;;;2.20;82.60;;;;;;5066573;28;20048;-83
2023/12/04 08:33:04;;;;;;;13.73;5.40;;;2.20;82.90;;;;;;5066544;28;20568;-83
2023/12/04 08:35:31;;;;;;;14.27;5.05;;;2.30;82.30;;;;;;5050115;28;20256;-82
2023/12/04 08:37:58;;;;;;;13.43;5.47;;;2.30;82.30;;;;;;5067632;28;20418;-83
2023/12/04 08:40:27;;;;;;;12.82;5.60;;;2.30;82.30;;;;;;5050102;28;20828;-83
2023/12/04 08:42:54;;;;;;;13.43;5.28;;;2.30;82.20;;;;;;5064782;28;20056;-82
2023/12/04 08:45:20;;;;;;;15.27;5.70;;;2.30;82.70;;;;;;5066577;28;20557;-82
2023/12/04 08:47:48;;;;;;;14.80;5.68;;;2.40;82.60;;;;;;5050922;28;20275;-83
2023/12/04 08:50:16;;;;;;;15.40;5.60;;;2.40;82.20;;;;;;5054477;28;20132;-81
2023/12/04 08:52:43;;;;;;;12.43;4.95;;;2.40;81.90;;;;;;5069921;28;20060;-81
2023/12/04 08:55:11;;;;;;;12.32;5.30;;;2.40;81.50;;;;;;5058258;28;20481;-82
2023/12/04 08:57:42;;;;;;;12.33;5.03;;;2.40;81.40;;;;;;5060511;28;20054;-81
2023/12/04 09:00:10;;;;;;;12.43;4.80;;;2.40;81.70;;;;;;5069072;28;20284;-81
2023/12/04 09:02:37;;;;;;;11.13;4.78;;;2.40;81.30;;;;;;5069724;28;20049;-81
2023/12/04 09:05:05;;;;;;;11.43;4.82;;;2.40;81.10;;;;;;5067963;28;20048;-81
2023/12/04 09:07:32;;;;;;;13.88;5.50;;;2.40;81.30;;;;;;5069537;28;20057;-81
2023/12/04 09:10:01;;;;;;;13.50;5.50;;;2.40;81.30;;;;;;5067822;28;20045;-81
2023/12/04 09:12:29;;;;;;;12.95;5.20;;;2.40;81.50;;;;;;5067640;28;20429;-79
2023/12/04 09:14:57;;;;;;;11.75;5.05;;;2.50;82.10;;;;;;5068599;28;20060;-81
2023/12/04 09:17:24;;;;;;;12.07;5.22;;;2.50;82.00;;;;;;5048676;28;20046;-80
2023/12/04 09:19:51;;;;;;;12.57;5.10;;;2.50;81.40;;;;;;5048882;28;20053;-80
2023/12/04 09:22:19;;;;;;;11.87;5.63;;;2.50;80.80;;;;;;5066057;28;20079;-81
2023/12/04 09:24:46;;;;;;;11.85;4.93;;;2.50;80.80;;;;;;5050765;28;20853;-80
2023/12/04 09:27:14;;;;;;;13.23;5.07;;;2.50;80.80;;;;;;5058735;28;20053;-80
2023/12/04 09:29:41;;;;;;;11.02;5.00;;;2.40;81.00;;;;;;5070572;28;20055;-81
2023/12/04 09:32:10;;;;;;;11.27;5.18;;;2.50;81.20;;;;;;5068626;28;20056;-80
2023/12/04 09:34:37;;;;;;;13.73;5.33;;;2.50;81.20;;;;;;5068519;28;20053;-80
2023/12/04 09:37:04;;;;;;;10.60;4.63;;;2.50;81.30;;;;;;5068796;28;20245;-82
2023/12/04 09:39:31;;;;;;;12.15;4.88;;;2.50;81.20;;;;;;5070130;28;20055;-82
2023/12/04 09:42:00;;;;;;;10.02;4.70;;;2.50;81.20;;;;;;5050542;28;20132;-82
2023/12/04 09:44:30;;;;;;;11.95;4.68;;;2.50;81.10;;;;;;5048786;28;20053;-82
2023/12/04 09:46:57;;;;;;;11.13;4.87;;;2.50;81.70;;;;;;5079998;28;20110;-81
2023/12/04 09:49:29;;;;;;;9.88;4.63;;;2.60;81.80;;;;;;5069040;28;20314;-80
2023/12/04 09:51:58;;;;;;;10.75;4.43;;;2.60;81.60;;;;;;5068205;28;20450;-80
2023/12/04 09:54:26;;;;;;;11.30;4.93;;;2.70;81.20;;;;;;5068718;28;21092;-81
2023/12/04 09:56:54;;;;;;;11.43;4.93;;;2.70;81.00;;;;;;5068286;28;20159;-81
2023/12/04 09:59:25;;;;;;;13.53;5.50;;;2.60;80.50;;;;;;5069727;28;20053;-81
2023/12/04 10:02:41;;;;;;;11.52;4.32;;;2.60;80.20;;;;;;5069053;28;20259;-80
2023/12/04 10:05:10;;;;;;;10.25;4.30;;;2.50;80.20;;;;;;5051722;28;20050;-84
2023/12/04 10:07:38;;;;;;;10.48;4.68;;;2.50;80.40;;;;;;5066926;28;20064;-83
2023/12/04 10:10:05;;;;;;;10.20;4.00;;;2.50;79.70;;;;;;5069238;28;20060;-83
2023/12/04 10:12:34;;;;;;;11.00;4.53;;;2.50;80.20;;;;;;5055535;28;20060;-80
2023/12/04 10:15:06;;;;;;;11.02;4.15;;;2.50;80.30;;;;;;5052987;28;20256;-80
2023/12/04 10:17:38;;;;;;;11.25;4.40;;;2.50;79.90;;;;;;5051395;28;20050;-81
2023/12/04 10:20:12;;;;;;;10.68;5.05;;;2.60;80.50;;;;;;5059695;28;20057;-80
2023/12/04 10:22:54;;;;;;;10.10;3.97;;;2.70;80.70;;;;;;5079908;28;20060;-81
2023/12/04 10:25:21;;;;;;;9.57;3.80;;;2.70;81.00;;;;;;5066869;28;20064;-80
2023/12/04 10:27:48;;;;;;;10.32;4.35;;;2.70;80.50;;;;;;5066712;28;20256;-80
2023/12/04 10:30:26;;;;;;;11.20;4.75;;;2.70;80.10;;;;;;5056384;28;20048;-81
2023/12/04 10:33:00;;;;;;;9.70;4.07;;;2.70;79.80;;;;;;5066019;28;20076;-81
2023/12/04 10:35:30;;;;;;;11.43;4.32;;;2.70;80.00;;;;;;5066344;28;20144;-81
2023/12/04 10:37:57;;;;;;;11.10;4.50;;;2.70;79.30;;;;;;5066675;28;20084;-81
2023/12/04 10:40:25;;;;;;;11.40;4.68;;;2.70;79.30;;;;;;5065831;28;20908;-80
2023/12/04 10:42:53;;;;;;;10.60;4.22;;;2.70;80.10;;;;;;5066371;28;20060;-81
2023/12/04 10:45:22;;;;;;;10.05;4.03;;;2.80;80.60;;;;;;5065397;28;20502;-81
2023/12/04 10:47:51;;;;;;;11.10;4.95;;;2.80;80.70;;;;;;5063993;28;20132;-81
2023/12/04 10:50:18;;;;;;;9.73;4.47;;;2.80;79.90;;;;;;5067095;28;20057;-82
2023/12/04 10:52:48;;;;;;;9.95;4.05;;;2.80;80.60;;;;;;5065011;28;20730;-82
2023/12/04 10:55:15;;;;;;;9.90;4.40;;;2.90;80.40;;;;;;5067535;28;20431;-81
2023/12/04 10:57:44;;;;;;;9.45;4.30;;;2.90;80.10;;;;;;5066375;28;20075;-82
2023/12/04 11:00:16;;;;;;;10.65;3.95;;;2.90;80.50;;;;;;5048862;28;20081;-81
2023/12/04 11:02:48;;;;;;;10.07;4.23;;;2.90;79.80;;;;;;5075813;28;20063;-82
2023/12/04 11:05:17;;;;;;;9.70;4.22;;;2.90;80.00;;;;;;5066169;28;20260;-83
2023/12/04 11:07:52;;;;;;;9.80;3.92;;;3.00;80.60;;;;;;5080294;28;20052;-83
2023/12/04 11:10:23;;;;;;;9.02;4.00;;;3.00;80.00;;;;;;5064247;28;20063;-83
2023/12/04 11:12:55;;;;;;;8.63;3.78;;;3.00;79.90;;;;;;5066969;28;20439;-83
2023/12/04 11:15:25;;;;;;;9.13;3.77;;;3.00;79.70;;;;;;5066013;28;20672;-83
2023/12/04 11:17:59;;;;;;;10.93;4.20;;;3.00;79.30;;;;;;5066337;28;20873;-84
2023/12/04 11:20:30;;;;;;;9.10;4.13;;;3.10;79.50;;;;;;5065456;28;20056;-83
2023/12/04 11:22:59;;;;;;;8.90;4.18;;;3.00;79.00;;;;;;5065945;28;20572;-83
2023/12/04 11:25:28;;;;;;;9.43;3.92;;;3.10;79.30;;;;;;5064205;28;20207;-84
2023/12/04 11:27:56;;;;;;;8.07;3.70;;;3.10;79.20;;;;;;5064236;28;20053;-83
2023/12/04 11:30:23;;;;;;;9.02;4.07;;;3.10;78.70;;;;;;5066619;28;20409;-83
2023/12/04 11:32:56;;;;;;;9.07;3.58;;;3.10;78.70;;;;;;5058446;28;20055;-83
2023/12/04 11:35:27;;;;;;;9.40;3.78;;;3.10;79.10;;;;;;5052639;28;20053;-83
2023/12/04 11:37:54;;;;;;;8.80;3.85;;;3.10;78.30;;;;;;5063648;28;20107;-83
2023/12/04 11:40:22;;;;;;;8.17;3.63;;;3.10;79.00;;;;;;5067178;28;20063;-83
2023/12/04 11:42:49;;;;;;;10.27;4.10;;;3.10;79.00;;;;;;5064270;28;20272;-82
2023/12/04 11:45:20;;;;;;;8.75;3.92;;;3.10;79.40;;;;;;5058556;28;20063;-83
2023/12/04 11:47:51;;;;;;;10.27;3.75;;;3.10;79.80;;;;;;5066547;28;20053;-84
2023/12/04 11:50:20;;;;;;;9.30;4.10;;;3.10;79.70;;;;;;5067143;28;20061;-84
2023/12/04 11:52:49;;;;;;;8.93;3.77;;;3.30;80.00;;;;;;5049627;28;20045;-83
2023/12/04 11:55:21;;;;;;;11.68;4.38;;;3.30;80.30;;;;;;5048269;28;20253;-83
2023/12/04 11:57:51;;;;;;;9.00;4.03;;;3.30;80.00;;;;;;5063508;28;20046;-83
2023/12/04 12:00:24;;;;;;;9.60;3.55;;;3.30;79.60;;;;;;5039065;28;20053;-83
2023/12/04 12:03:06;;;;;;;8.88;3.78;;;3.30;79.00;;;;;;5065963;28;20053;-82
2023/12/04 12:05:34;;;;;;;8.80;4.17;;;3.40;80.00;;;;;;5058899;28;20508;-83
2023/12/04 12:08:05;;;;;;;9.57;3.90;;;3.40;79.40;;;;;;5049138;28;20255;-84
2023/12/04 12:10:33;;;;;;;9.45;4.22;;;3.40;79.20;;;;;;5083369;28;20152;-85
2023/12/04 12:13:02;;;;;;;8.32;3.80;;;3.50;79.20;;;;;;5066358;28;20076;-84
2023/12/04 12:15:30;;;;;;;8.13;3.63;;;3.50;78.90;;;;;;5066444;28;20045;-82
2023/12/04 12:17:57;;;;;;;10.70;4.37;;;3.50;79.00;;;;;;5070001;28;20422;-85
2023/12/04 12:20:24;;;;;;;10.07;3.85;;;3.50;78.40;;;;;;5071796;28;20302;-85
2023/12/04 12:22:53;;;;;;;9.63;4.20;;;3.50;78.20;;;;;;5087335;28;21105;-85
2023/12/04 12:25:20;;;;;;;9.15;3.97;;;3.50;78.30;;;;;;5069032;28;20057;-86
2023/12/04 12:27:47;;;;;;;9.63;3.80;;;3.50;77.70;;;;;;5070505;28;20068;-87
2023/12/04 12:30:16;;;;;;;9.17;3.97;;;3.50;77.50;;;;;;5069004;28;20949;-87
2023/12/04 12:32:43;;;;;;;8.27;3.50;;;3.50;77.50;;;;;;5069000;28;20251;-85
2023/12/04 12:35:11;;;;;;;9.45;4.32;;;3.50;77.40;;;;;;5085951;28;20092;-86
2023/12/04 12:37:40;;;;;;;9.40;4.30;;;3.50;77.10;;;;;;5068718;28;20162;-85
2023/12/04 12:40:09;;;;;;;10.35;3.50;;;3.50;78.40;;;;;;5071104;28;20048;-86
2023/12/04 12:42:37;;;;;;;9.33;3.90;;;3.50;77.80;;;;;;5087298;28;20061;-86
2023/12/04 12:45:05;;;;;;;9.23;3.60;;;3.50;77.10;;;;;;5070017;28;20319;-84
2023/12/04 12:47:36;;;;;;;8.90;4.00;;;3.50;77.30;;;;;;5069434;28;20045;-85
2023/12/04 12:50:03;;;;;;;8.85;3.75;;;3.50;77.40;;;;;;5070586;28;20061;-84
2023/12/04 12:52:30;;;;;;;9.07;4.20;;;3.60;78.20;;;;;;5065747;28;20060;-83